sensor_id;sensor_type;location;lat;lon;timestamp;temperature;humidity
44247;DHT22;29922;0.000;0.000;2022-08-14T00:03:37;19.20;41.60
44247;DHT22;29922;0.000;0.000;2022-08-14T00:08:57;19.20;41.80
44247;DHT22;29922;0.000;0.000;2022-08-14T00:14:19;19.20;41.80
44247;DHT22;29922;0.000;0.000;2022-08-14T00:19:39;19.20;42.00
44247;DHT22;29922;0.000;0.000;2022-08-14T00:25:00;19.20;42.10
44247;DHT22;29922;0.000;0.000;2022-08-14T00:30:22;19.20;42.00
44247;DHT22;29922;0.000;0.000;2022-08-14T00:35:43;19.10;42.00
44247;DHT22;29922;0.000;0.000;2022-08-14T00:41:05;19.10;41.80
44247;DHT22;29922;0.000;0.000;2022-08-14T00:46:28;19.10;41.70
44247;DHT22;29922;0.000;0.000;2022-08-14T00:51:49;19.10;41.60
44247;DHT22;29922;0.000;0.000;2022-08-14T00:57:10;19.10;41.50
44247;DHT22;29922;0.000;0.000;2022-08-14T01:02:32;19.00;41.30
44247;DHT22;29922;0.000;0.000;2022-08-14T01:07:55;19.00;41.30
44247;DHT22;29922;0.000;0.000;2022-08-14T01:13:20;19.10;41.20
44247;DHT22;29922;0.000;0.000;2022-08-14T01:18:43;19.00;40.80
44247;DHT22;29922;0.000;0.000;2022-08-14T01:24:24;19.00;40.80
44247;DHT22;29922;0.000;0.000;2022-08-14T01:29:46;19.00;40.80
44247;DHT22;29922;0.000;0.000;2022-08-14T01:35:11;18.90;40.80
44247;DHT22;29922;0.000;0.000;2022-08-14T01:40:33;18.90;40.80
44247;DHT22;29922;0.000;0.000;2022-08-14T01:45:53;18.90;40.80
44247;DHT22;29922;0.000;0.000;2022-08-14T01:51:15;18.90;41.10
44247;DHT22;29922;0.000;0.000;2022-08-14T01:56:40;18.90;41.10
44247;DHT22;29922;0.000;0.000;2022-08-14T02:02:06;18.90;41.10
44247;DHT22;29922;0.000;0.000;2022-08-14T02:07:30;18.80;41.10
44247;DHT22;29922;0.000;0.000;2022-08-14T02:12:52;18.80;41.10
44247;DHT22;29922;0.000;0.000;2022-08-14T02:18:12;18.80;41.30
44247;DHT22;29922;0.000;0.000;2022-08-14T02:23:33;18.80;41.50
44247;DHT22;29922;0.000;0.000;2022-08-14T02:28:57;18.80;41.60
44247;DHT22;29922;0.000;0.000;2022-08-14T02:34:21;18.80;41.80
44247;DHT22;29922;0.000;0.000;2022-08-14T02:39:45;18.80;42.60
44247;DHT22;29922;0.000;0.000;2022-08-14T02:45:07;18.80;42.00
44247;DHT22;29922;0.000;0.000;2022-08-14T02:50:29;18.80;42.30
44247;DHT22;29922;0.000;0.000;2022-08-14T02:55:49;18.80;42.30
44247;DHT22;29922;0.000;0.000;2022-08-14T03:01:12;18.80;42.40
44247;DHT22;29922;0.000;0.000;2022-08-14T03:06:34;18.80;42.60
44247;DHT22;29922;0.000;0.000;2022-08-14T03:11:54;18.80;42.80
44247;DHT22;29922;0.000;0.000;2022-08-14T03:17:16;18.80;42.90
44247;DHT22;29922;0.000;0.000;2022-08-14T03:22:37;18.80;43.00
44247;DHT22;29922;0.000;0.000;2022-08-14T03:28:01;18.70;42.90
44247;DHT22;29922;0.000;0.000;2022-08-14T03:33:24;18.80;42.90
44247;DHT22;29922;0.000;0.000;2022-08-14T03:38:49;18.70;43.10
44247;DHT22;29922;0.000;0.000;2022-08-14T03:44:12;18.70;43.10
44247;DHT22;29922;0.000;0.000;2022-08-14T03:49:34;18.70;43.20
44247;DHT22;29922;0.000;0.000;2022-08-14T03:54:55;18.70;43.20
44247;DHT22;29922;0.000;0.000;2022-08-14T04:00:16;18.70;43.80
44247;DHT22;29922;0.000;0.000;2022-08-14T04:05:39;18.70;43.20
44247;DHT22;29922;0.000;0.000;2022-08-14T04:11:00;18.70;43.30
44247;DHT22;29922;0.000;0.000;2022-08-14T04:16:21;18.60;43.40
44247;DHT22;29922;0.000;0.000;2022-08-14T04:21:43;18.60;43.30
44247;DHT22;29922;0.000;0.000;2022-08-14T04:27:04;18.60;43.40
44247;DHT22;29922;0.000;0.000;2022-08-14T04:32:26;18.60;43.50
44247;DHT22;29922;0.000;0.000;2022-08-14T04:37:48;18.50;43.60
44247;DHT22;29922;0.000;0.000;2022-08-14T04:43:27;18.50;43.60
44247;DHT22;29922;0.000;0.000;2022-08-14T04:48:58;18.50;43.50
44247;DHT22;29922;0.000;0.000;2022-08-14T04:54:19;18.50;43.60
44247;DHT22;29922;0.000;0.000;2022-08-14T04:59:40;18.60;43.60
44247;DHT22;29922;0.000;0.000;2022-08-14T05:05:01;18.50;43.70
44247;DHT22;29922;0.000;0.000;2022-08-14T05:10:22;18.50;43.80
44247;DHT22;29922;0.000;0.000;2022-08-14T05:15:44;18.40;43.90
44247;DHT22;29922;0.000;0.000;2022-08-14T05:21:08;18.50;44.10
44247;DHT22;29922;0.000;0.000;2022-08-14T05:26:30;18.40;44.30
44247;DHT22;29922;0.000;0.000;2022-08-14T05:31:50;18.40;44.40
44247;DHT22;29922;0.000;0.000;2022-08-14T05:37:14;18.40;44.60
44247;DHT22;29922;0.000;0.000;2022-08-14T05:42:36;18.50;44.70
44247;DHT22;29922;0.000;0.000;2022-08-14T05:47:56;18.40;44.90
44247;DHT22;29922;0.000;0.000;2022-08-14T05:53:17;18.50;44.90
44247;DHT22;29922;0.000;0.000;2022-08-14T05:58:39;18.50;44.80
44247;DHT22;29922;0.000;0.000;2022-08-14T06:03:59;18.50;44.90
44247;DHT22;29922;0.000;0.000;2022-08-14T06:09:20;18.60;44.80
44247;DHT22;29922;0.000;0.000;2022-08-14T06:14:42;18.60;44.80
44247;DHT22;29922;0.000;0.000;2022-08-14T06:20:03;18.70;44.80
44247;DHT22;29922;0.000;0.000;2022-08-14T06:25:24;18.70;44.80
44247;DHT22;29922;0.000;0.000;2022-08-14T06:30:47;18.70;44.80
44247;DHT22;29922;0.000;0.000;2022-08-14T06:36:08;18.80;44.90
44247;DHT22;29922;0.000;0.000;2022-08-14T06:41:28;18.70;44.90
44247;DHT22;29922;0.000;0.000;2022-08-14T06:46:50;18.70;44.80
44247;DHT22;29922;0.000;0.000;2022-08-14T06:52:11;18.80;44.80
44247;DHT22;29922;0.000;0.000;2022-08-14T06:57:36;18.80;44.90
44247;DHT22;29922;0.000;0.000;2022-08-14T07:02:59;18.80;45.10
44247;DHT22;29922;0.000;0.000;2022-08-14T07:08:37;18.80;45.20
44247;DHT22;29922;0.000;0.000;2022-08-14T07:13:58;18.80;45.40
44247;DHT22;29922;0.000;0.000;2022-08-14T07:19:20;18.70;45.60
44247;DHT22;29922;0.000;0.000;2022-08-14T07:24:41;18.80;45.70
44247;DHT22;29922;0.000;0.000;2022-08-14T07:30:03;18.80;45.90
44247;DHT22;29922;0.000;0.000;2022-08-14T07:35:25;18.80;46.00
44247;DHT22;29922;0.000;0.000;2022-08-14T07:40:46;18.80;46.10
44247;DHT22;29922;0.000;0.000;2022-08-14T07:46:08;18.80;46.00
44247;DHT22;29922;0.000;0.000;2022-08-14T07:51:30;18.90;46.10
44247;DHT22;29922;0.000;0.000;2022-08-14T07:56:50;18.80;46.10
44247;DHT22;29922;0.000;0.000;2022-08-14T08:02:11;18.90;46.30
44247;DHT22;29922;0.000;0.000;2022-08-14T08:07:35;18.90;47.10
44247;DHT22;29922;0.000;0.000;2022-08-14T08:12:59;18.90;46.70
44247;DHT22;29922;0.000;0.000;2022-08-14T08:18:23;18.90;46.90
44247;DHT22;29922;0.000;0.000;2022-08-14T08:23:46;18.90;46.90
44247;DHT22;29922;0.000;0.000;2022-08-14T08:29:06;18.90;46.60
44247;DHT22;29922;0.000;0.000;2022-08-14T08:34:28;19.00;46.60
44247;DHT22;29922;0.000;0.000;2022-08-14T08:39:50;18.90;47.10
44247;DHT22;29922;0.000;0.000;2022-08-14T08:45:14;19.00;47.20
44247;DHT22;29922;0.000;0.000;2022-08-14T08:50:37;19.00;47.20
44247;DHT22;29922;0.000;0.000;2022-08-14T08:56:00;19.00;47.20
44247;DHT22;29922;0.000;0.000;2022-08-14T09:01:27;19.00;47.20
44247;DHT22;29922;0.000;0.000;2022-08-14T09:06:49;19.00;47.10
44247;DHT22;29922;0.000;0.000;2022-08-14T09:12:11;19.00;46.90
44247;DHT22;29922;0.000;0.000;2022-08-14T09:17:33;19.10;47.00
44247;DHT22;29922;0.000;0.000;2022-08-14T09:22:55;19.10;47.00
44247;DHT22;29922;0.000;0.000;2022-08-14T09:28:19;19.20;47.30
44247;DHT22;29922;0.000;0.000;2022-08-14T09:33:54;19.20;47.50
44247;DHT22;29922;0.000;0.000;2022-08-14T09:39:32;19.20;47.70
44247;DHT22;29922;0.000;0.000;2022-08-14T09:45:13;19.20;47.50
44247;DHT22;29922;0.000;0.000;2022-08-14T09:50:45;19.20;47.60
44247;DHT22;29922;0.000;0.000;2022-08-14T09:56:07;19.30;47.60
44247;DHT22;29922;0.000;0.000;2022-08-14T10:01:36;19.30;47.30
44247;DHT22;29922;0.000;0.000;2022-08-14T10:06:58;19.30;47.30
44247;DHT22;29922;0.000;0.000;2022-08-14T10:12:19;19.30;47.10
44247;DHT22;29922;0.000;0.000;2022-08-14T10:17:41;19.30;47.10
44247;DHT22;29922;0.000;0.000;2022-08-14T10:23:12;19.30;47.10
44247;DHT22;29922;0.000;0.000;2022-08-14T10:28:38;19.30;47.10
44247;DHT22;29922;0.000;0.000;2022-08-14T10:34:04;19.30;47.00
44247;DHT22;29922;0.000;0.000;2022-08-14T10:39:26;19.30;47.00
44247;DHT22;29922;0.000;0.000;2022-08-14T10:44:47;19.30;47.00
44247;DHT22;29922;0.000;0.000;2022-08-14T10:50:10;19.30;47.00
44247;DHT22;29922;0.000;0.000;2022-08-14T10:55:34;19.40;47.00
44247;DHT22;29922;0.000;0.000;2022-08-14T11:00:59;19.40;47.00
44247;DHT22;29922;0.000;0.000;2022-08-14T11:06:28;19.40;46.90
44247;DHT22;29922;0.000;0.000;2022-08-14T11:11:54;19.40;46.90
44247;DHT22;29922;0.000;0.000;2022-08-14T11:17:15;19.40;46.80
44247;DHT22;29922;0.000;0.000;2022-08-14T11:22:39;19.40;46.80
44247;DHT22;29922;0.000;0.000;2022-08-14T11:28:01;19.40;46.70
44247;DHT22;29922;0.000;0.000;2022-08-14T11:33:24;19.40;46.90
44247;DHT22;29922;0.000;0.000;2022-08-14T11:38:50;19.50;47.20
44247;DHT22;29922;0.000;0.000;2022-08-14T11:44:10;19.50;47.40
44247;DHT22;29922;0.000;0.000;2022-08-14T11:49:31;19.50;47.60
44247;DHT22;29922;0.000;0.000;2022-08-14T11:54:57;19.50;48.00
44247;DHT22;29922;0.000;0.000;2022-08-14T12:00:18;19.50;48.00
44247;DHT22;29922;0.000;0.000;2022-08-14T12:05:39;19.50;48.20
44247;DHT22;29922;0.000;0.000;2022-08-14T12:11:03;19.60;48.40
44247;DHT22;29922;0.000;0.000;2022-08-14T12:16:24;19.50;48.30
44247;DHT22;29922;0.000;0.000;2022-08-14T12:21:49;19.60;48.40
44247;DHT22;29922;0.000;0.000;2022-08-14T12:27:11;19.60;48.60
44247;DHT22;29922;0.000;0.000;2022-08-14T12:32:40;19.50;48.30
44247;DHT22;29922;0.000;0.000;2022-08-14T12:38:01;19.50;48.20
44247;DHT22;29922;0.000;0.000;2022-08-14T12:43:23;19.60;48.10
44247;DHT22;29922;0.000;0.000;2022-08-14T12:48:43;19.60;48.30
44247;DHT22;29922;0.000;0.000;2022-08-14T12:54:12;19.60;48.30
44247;DHT22;29922;0.000;0.000;2022-08-14T12:59:36;19.60;48.40
44247;DHT22;29922;0.000;0.000;2022-08-14T13:04:57;19.50;48.10
44247;DHT22;29922;0.000;0.000;2022-08-14T13:10:20;19.60;49.10
44247;DHT22;29922;0.000;0.000;2022-08-14T13:15:42;19.60;48.20
44247;DHT22;29922;0.000;0.000;2022-08-14T13:21:04;19.60;48.00
44247;DHT22;29922;0.000;0.000;2022-08-14T13:26:25;19.60;48.00
44247;DHT22;29922;0.000;0.000;2022-08-14T13:31:49;19.60;48.00
44247;DHT22;29922;0.000;0.000;2022-08-14T13:37:12;19.60;48.10
44247;DHT22;29922;0.000;0.000;2022-08-14T13:42:33;19.60;48.00
44247;DHT22;29922;0.000;0.000;2022-08-14T13:47:56;19.70;48.80
44247;DHT22;29922;0.000;0.000;2022-08-14T13:53:16;19.60;48.10
44247;DHT22;29922;0.000;0.000;2022-08-14T13:58:40;19.60;47.90
44247;DHT22;29922;0.000;0.000;2022-08-14T14:04:04;19.60;47.50
44247;DHT22;29922;0.000;0.000;2022-08-14T14:09:27;19.60;47.50
44247;DHT22;29922;0.000;0.000;2022-08-14T14:14:49;19.50;47.50
44247;DHT22;29922;0.000;0.000;2022-08-14T14:20:14;19.50;47.50
44247;DHT22;29922;0.000;0.000;2022-08-14T14:25:39;19.60;47.50
44247;DHT22;29922;0.000;0.000;2022-08-14T14:31:01;19.60;47.50
44247;DHT22;29922;0.000;0.000;2022-08-14T14:36:29;19.60;47.50
44247;DHT22;29922;0.000;0.000;2022-08-14T14:41:53;19.60;47.50
44247;DHT22;29922;0.000;0.000;2022-08-14T14:47:14;19.50;47.30
44247;DHT22;29922;0.000;0.000;2022-08-14T14:52:38;19.60;47.30
44247;DHT22;29922;0.000;0.000;2022-08-14T14:58:00;19.60;47.30
44247;DHT22;29922;0.000;0.000;2022-08-14T15:03:20;19.60;47.30
44247;DHT22;29922;0.000;0.000;2022-08-14T15:08:42;19.60;47.50
44247;DHT22;29922;0.000;0.000;2022-08-14T15:14:04;19.60;47.50
44247;DHT22;29922;0.000;0.000;2022-08-14T15:19:25;19.60;47.50
44247;DHT22;29922;0.000;0.000;2022-08-14T15:24:46;19.50;47.60
44247;DHT22;29922;0.000;0.000;2022-08-14T15:30:09;19.60;47.60
44247;DHT22;29922;0.000;0.000;2022-08-14T15:35:30;19.50;47.60
44247;DHT22;29922;0.000;0.000;2022-08-14T15:40:52;19.60;47.70
44247;DHT22;29922;0.000;0.000;2022-08-14T15:46:14;19.60;47.70
44247;DHT22;29922;0.000;0.000;2022-08-14T15:51:35;19.50;47.70
44247;DHT22;29922;0.000;0.000;2022-08-14T15:56:59;19.50;47.70
44247;DHT22;29922;0.000;0.000;2022-08-14T16:02:23;19.60;47.90
44247;DHT22;29922;0.000;0.000;2022-08-14T16:07:45;19.50;48.70
44247;DHT22;29922;0.000;0.000;2022-08-14T16:13:07;19.50;49.10
44247;DHT22;29922;0.000;0.000;2022-08-14T16:18:29;19.50;48.40
44247;DHT22;29922;0.000;0.000;2022-08-14T16:23:55;19.50;48.30
44247;DHT22;29922;0.000;0.000;2022-08-14T16:29:18;19.50;48.30
44247;DHT22;29922;0.000;0.000;2022-08-14T16:34:39;19.50;48.40
44247;DHT22;29922;0.000;0.000;2022-08-14T16:40:00;19.60;48.60
44247;DHT22;29922;0.000;0.000;2022-08-14T16:45:24;19.50;48.50
44247;DHT22;29922;0.000;0.000;2022-08-14T16:50:46;19.50;48.50
44247;DHT22;29922;0.000;0.000;2022-08-14T16:56:10;19.50;48.60
44247;DHT22;29922;0.000;0.000;2022-08-14T17:01:34;19.50;48.80
44247;DHT22;29922;0.000;0.000;2022-08-14T17:06:56;19.40;48.70
44247;DHT22;29922;0.000;0.000;2022-08-14T17:12:22;19.50;48.70
44247;DHT22;29922;0.000;0.000;2022-08-14T17:17:46;19.50;48.80
44247;DHT22;29922;0.000;0.000;2022-08-14T17:23:08;19.50;48.80
44247;DHT22;29922;0.000;0.000;2022-08-14T17:28:29;19.50;48.70
44247;DHT22;29922;0.000;0.000;2022-08-14T17:33:51;19.50;48.80
44247;DHT22;29922;0.000;0.000;2022-08-14T17:39:14;19.50;48.70
44247;DHT22;29922;0.000;0.000;2022-08-14T17:44:35;19.50;48.80
44247;DHT22;29922;0.000;0.000;2022-08-14T17:49:59;19.50;48.80
44247;DHT22;29922;0.000;0.000;2022-08-14T17:55:21;19.50;49.10
44247;DHT22;29922;0.000;0.000;2022-08-14T18:00:42;19.50;49.10
44247;DHT22;29922;0.000;0.000;2022-08-14T18:06:04;19.50;49.20
44247;DHT22;29922;0.000;0.000;2022-08-14T18:11:26;19.50;49.40
44247;DHT22;29922;0.000;0.000;2022-08-14T18:16:47;19.50;49.40
44247;DHT22;29922;0.000;0.000;2022-08-14T18:22:10;19.50;49.40
44247;DHT22;29922;0.000;0.000;2022-08-14T18:27:34;19.50;49.40
44247;DHT22;29922;0.000;0.000;2022-08-14T18:33:13;19.50;49.60
44247;DHT22;29922;0.000;0.000;2022-08-14T18:38:36;19.50;49.60
44247;DHT22;29922;0.000;0.000;2022-08-14T18:43:56;19.50;49.60
44247;DHT22;29922;0.000;0.000;2022-08-14T18:49:18;19.50;49.70
44247;DHT22;29922;0.000;0.000;2022-08-14T18:54:40;19.50;49.60
44247;DHT22;29922;0.000;0.000;2022-08-14T19:06:10;19.50;50.80
44247;DHT22;29922;0.000;0.000;2022-08-14T19:11:44;19.50;51.20
44247;DHT22;29922;0.000;0.000;2022-08-14T19:23:14;19.50;51.20
44247;DHT22;29922;0.000;0.000;2022-08-14T19:28:43;19.50;51.30
44247;DHT22;29922;0.000;0.000;2022-08-14T19:34:06;19.50;51.30
44247;DHT22;29922;0.000;0.000;2022-08-14T19:39:47;19.50;51.50
44247;DHT22;29922;0.000;0.000;2022-08-14T19:45:12;19.50;51.90
44247;DHT22;29922;0.000;0.000;2022-08-14T19:50:34;19.50;51.80
44247;DHT22;29922;0.000;0.000;2022-08-14T19:55:57;19.50;52.00
44247;DHT22;29922;0.000;0.000;2022-08-14T20:01:25;19.50;52.10
44247;DHT22;29922;0.000;0.000;2022-08-14T20:06:49;19.50;52.40
44247;DHT22;29922;0.000;0.000;2022-08-14T20:12:17;19.40;52.40
44247;DHT22;29922;0.000;0.000;2022-08-14T20:17:39;19.50;52.70
44247;DHT22;29922;0.000;0.000;2022-08-14T20:23:11;19.40;52.80
44247;DHT22;29922;0.000;0.000;2022-08-14T20:28:32;19.40;52.90
44247;DHT22;29922;0.000;0.000;2022-08-14T20:34:03;19.50;53.10
44247;DHT22;29922;0.000;0.000;2022-08-14T20:39:26;19.40;53.10
44247;DHT22;29922;0.000;0.000;2022-08-14T20:44:47;19.40;53.00
44247;DHT22;29922;0.000;0.000;2022-08-14T20:50:27;19.40;53.00
44247;DHT22;29922;0.000;0.000;2022-08-14T20:55:50;19.40;53.00
44247;DHT22;29922;0.000;0.000;2022-08-14T21:01:29;19.40;53.30
44247;DHT22;29922;0.000;0.000;2022-08-14T21:06:52;19.40;53.80
44247;DHT22;29922;0.000;0.000;2022-08-14T21:12:17;19.40;53.90
44247;DHT22;29922;0.000;0.000;2022-08-14T21:17:39;19.40;53.90
44247;DHT22;29922;0.000;0.000;2022-08-14T21:23:00;19.40;54.20
44247;DHT22;29922;0.000;0.000;2022-08-14T21:28:21;19.40;54.50
44247;DHT22;29922;0.000;0.000;2022-08-14T21:33:44;19.40;54.30
44247;DHT22;29922;0.000;0.000;2022-08-14T21:39:05;19.40;54.30
44247;DHT22;29922;0.000;0.000;2022-08-14T21:44:28;19.40;54.20
44247;DHT22;29922;0.000;0.000;2022-08-14T21:49:51;19.40;54.30
44247;DHT22;29922;0.000;0.000;2022-08-14T21:55:15;19.40;54.30
44247;DHT22;29922;0.000;0.000;2022-08-14T22:00:40;19.40;54.20
44247;DHT22;29922;0.000;0.000;2022-08-14T22:06:02;19.40;54.30
44247;DHT22;29922;0.000;0.000;2022-08-14T22:11:23;19.40;54.50
44247;DHT22;29922;0.000;0.000;2022-08-14T22:16:44;19.40;54.40
44247;DHT22;29922;0.000;0.000;2022-08-14T22:22:06;19.30;54.20
44247;DHT22;29922;0.000;0.000;2022-08-14T22:27:28;19.40;54.00
44247;DHT22;29922;0.000;0.000;2022-08-14T22:32:50;19.40;53.50
44247;DHT22;29922;0.000;0.000;2022-08-14T22:38:12;19.40;53.40
44247;DHT22;29922;0.000;0.000;2022-08-14T22:43:32;19.40;53.10
44247;DHT22;29922;0.000;0.000;2022-08-14T22:48:52;19.40;53.10
44247;DHT22;29922;0.000;0.000;2022-08-14T22:54:15;19.40;53.00
44247;DHT22;29922;0.000;0.000;2022-08-14T22:59:36;19.40;52.90
44247;DHT22;29922;0.000;0.000;2022-08-14T23:04:58;19.40;53.30
44247;DHT22;29922;0.000;0.000;2022-08-14T23:10:24;19.50;53.80
44247;DHT22;29922;0.000;0.000;2022-08-14T23:15:44;19.50;54.00
44247;DHT22;29922;0.000;0.000;2022-08-14T23:21:07;19.40;54.00
44247;DHT22;29922;0.000;0.000;2022-08-14T23:26:30;19.50;53.90
44247;DHT22;29922;0.000;0.000;2022-08-14T23:31:54;19.50;55.60
44247;DHT22;29922;0.000;0.000;2022-08-14T23:37:16;19.40;57.50
44247;DHT22;29922;0.000;0.000;2022-08-14T23:42:38;19.30;58.90
44247;DHT22;29922;0.000;0.000;2022-08-14T23:48:00;19.20;59.50
44247;DHT22;29922;0.000;0.000;2022-08-14T23:53:24;19.20;59.40
44247;DHT22;29922;0.000;0.000;2022-08-14T23:58:49;19.20;58.90
